Time;durP1;ratioP1;P1;durP2;ratioP2;P2;SDS_P1;SDS_P2;PMS_P1;PMS_P2;Temp;Humidity;BMP_temperature;BMP_pressure;BME280_temperature;BME280_humidity;BME280_pressure;Samples;Min_cycle;Max_cycle;Signal;HPM_P1;HPM_P2
2021/01/04 00:00:43;;;;;;;302.85;167.02;;;17.90;59.70;;;;;;5114619;28;20530;-59
2021/01/04 00:03:40;;;;;;;292.60;159.27;;;17.90;59.90;;;;;;5114471;28;20088;-60
2021/01/04 00:07:02;;;;;;;293.75;160.63;;;17.90;60.00;;;;;;5114106;28;20072;-59
2021/01/04 00:09:40;;;;;;;293.17;157.45;;;18.00;60.00;;;;;;5031268;28;20049;-59
2021/01/04 00:12:35;;;;;;;277.05;150.98;;;18.00;60.00;;;;;;5031774;28;20537;-60
2021/01/04 00:15:15;;;;;;;277.73;147.48;;;17.90;60.20;;;;;;5088203;28;20498;-59
2021/01/04 00:18:25;;;;;;;273.70;152.73;;;17.90;60.50;;;;;;5114270;28;20377;-60
2021/01/04 00:21:15;;;;;;;261.20;149.02;;;17.90;60.50;;;;;;5096568;28;20056;-59
2021/01/04 00:23:55;;;;;;;;;;;17.90;60.50;;;;;;5114680;28;20016;-60
2021/01/04 00:26:33;;;;;;;249.75;136.27;;;17.80;60.70;;;;;;5114075;28;20002;-60
2021/01/04 00:28:59;;;;;;;260.25;146.05;;;17.70;60.80;;;;;;5114217;28;20035;-59
2021/01/04 00:31:31;;;;;;;254.77;138.77;;;17.70;61.00;;;;;;5113959;28;20027;-62
2021/01/04 00:34:26;;;;;;;257.27;142.07;;;17.70;61.30;;;;;;5114700;28;20055;-60
2021/01/04 00:37:45;;;;;;;249.50;139.43;;;17.60;61.40;;;;;;5104337;28;20036;-60
2021/01/04 00:40:11;;;;;;;236.13;135.23;;;17.60;61.60;;;;;;5114658;28;20034;-59
2021/01/04 00:42:44;;;;;;;240.48;131.45;;;17.50;61.70;;;;;;5113968;28;20019;-60
2021/01/04 00:45:37;;;;;;;239.63;132.60;;;17.50;61.60;;;;;;5113850;28;20381;-59
2021/01/04 00:48:03;;;;;;;238.82;131.57;;;17.40;61.80;;;;;;5113885;28;20027;-60
2021/01/04 00:50:53;;;;;;;229.88;128.07;;;17.30;61.90;;;;;;5113608;28;20035;-59
2021/01/04 00:53:46;;;;;;;224.73;125.43;;;17.30;62.00;;;;;;5114009;28;20109;-59
2021/01/04 00:56:27;;;;;;;225.25;128.55;;;17.30;62.10;;;;;;5113770;28;20557;-59
2021/01/04 00:59:20;;;;;;;225.00;124.95;;;17.30;62.20;;;;;;5113933;28;20457;-59
2021/01/04 01:02:04;;;;;;;219.68;124.32;;;17.30;62.30;;;;;;5113716;28;20377;-59
2021/01/04 01:04:41;;;;;;;210.00;116.63;;;17.40;62.10;;;;;;5113890;28;20525;-59
2021/01/04 01:07:51;;;;;;;208.00;115.07;;;17.30;62.30;;;;;;5114086;28;20156;-59
2021/01/04 01:10:18;;;;;;;203.03;111.97;;;17.20;62.60;;;;;;5092645;28;20051;-59
2021/01/04 01:13:02;;;;;;;206.93;114.15;;;17.30;62.60;;;;;;5113482;28;20385;-59
2021/01/04 01:15:35;;;;;;;213.50;117.10;;;17.20;62.80;;;;;;5114184;28;20035;-59
2021/01/04 01:18:56;;;;;;;194.60;110.38;;;17.20;62.70;;;;;;5113891;28;20028;-59
2021/01/04 01:21:22;;;;;;;208.35;113.43;;;17.20;62.80;;;;;;5031779;28;20033;-59
2021/01/04 01:23:48;;;;;;;195.65;109.90;;;17.10;63.00;;;;;;5111092;28;20031;-59
2021/01/04 01:26:35;;;;;;;188.55;108.18;;;17.00;63.00;;;;;;5117349;28;20040;-59
2021/01/04 01:29:26;;;;;;;187.93;106.20;;;17.00;63.20;;;;;;5117589;28;20426;-59
2021/01/04 01:32:10;;;;;;;189.40;108.15;;;16.90;63.60;;;;;;5117021;28;20449;-59
2021/01/04 01:34:58;;;;;;;177.57;103.25;;;16.90;63.80;;;;;;5117635;28;20022;-59
2021/01/04 01:37:40;;;;;;;182.00;101.82;;;16.80;63.90;;;;;;5117136;28;20178;-59
2021/01/04 01:40:50;;;;;;;188.10;103.65;;;16.90;63.80;;;;;;5117022;28;20020;-59
2021/01/04 01:43:37;;;;;;;177.77;95.97;;;17.00;63.50;;;;;;5116943;28;20024;-59
2021/01/04 01:46:08;;;;;;;168.45;96.13;;;17.00;63.30;;;;;;5117021;28;20031;-59
2021/01/04 01:48:52;;;;;;;169.32;93.93;;;17.10;63.30;;;;;;5116865;28;20028;-59
2021/01/04 01:51:45;;;;;;;163.05;92.70;;;17.10;63.10;;;;;;5116937;28;20024;-59
2021/01/04 01:54:37;;;;;;;162.23;95.72;;;17.20;62.80;;;;;;5116984;28;20383;-59
2021/01/04 01:57:24;;;;;;;165.93;90.15;;;17.30;62.50;;;;;;5117454;28;20069;-59
2021/01/04 02:00:11;;;;;;;157.98;89.63;;;17.50;62.20;;;;;;5116767;28;20031;-59
2021/01/04 02:02:55;;;;;;;151.15;86.68;;;17.50;62.00;;;;;;5116735;28;20027;-59
2021/01/04 02:06:02;;;;;;;151.00;84.28;;;17.70;61.60;;;;;;5116544;27;20043;-59
2021/01/04 02:08:30;;;;;;;152.02;81.68;;;17.90;61.00;;;;;;5033686;28;20029;-59
2021/01/04 02:11:04;;;;;;;152.43;86.93;;;18.00;60.70;;;;;;5033720;28;20081;-59
2021/01/04 02:13:52;;;;;;;144.07;83.60;;;18.10;60.70;;;;;;5078037;28;20492;-59
2021/01/04 02:16:26;;;;;;;147.35;82.57;;;18.00;60.70;;;;;;5116692;28;20030;-59
2021/01/04 02:19:29;;;;;;;136.15;78.82;;;17.90;60.80;;;;;;5116430;28;20115;-59
2021/01/04 02:22:24;;;;;;;138.77;78.97;;;17.90;61.10;;;;;;5116267;28;20031;-59
2021/01/04 02:24:50;;;;;;;138.55;76.80;;;17.90;61.40;;;;;;5116497;28;20107;-59
2021/01/04 02:27:27;;;;;;;136.88;76.10;;;17.80;61.40;;;;;;5116141;28;20450;-59
2021/01/04 02:29:53;;;;;;;130.60;74.40;;;17.70;61.40;;;;;;5116053;28;20027;-59
2021/01/04 02:32:19;;;;;;;132.05;76.75;;;17.70;61.50;;;;;;5116089;28;20020;-59
2021/01/04 02:34:54;;;;;;;129.02;74.13;;;17.70;61.70;;;;;;5115292;28;20556;-59
2021/01/04 02:37:21;;;;;;;129.95;72.47;;;17.70;61.70;;;;;;5116034;28;20465;-59
2021/01/04 02:39:55;;;;;;;128.77;70.65;;;17.70;61.50;;;;;;5115959;28;20027;-59
2021/01/04 02:42:21;;;;;;;131.88;71.65;;;17.80;61.30;;;;;;5115881;28;20035;-59
2021/01/04 02:44:47;;;;;;;125.05;69.13;;;17.80;61.20;;;;;;5115511;28;20027;-59
2021/01/04 02:47:27;;;;;;;129.25;70.90;;;17.70;61.30;;;;;;5115494;28;20046;-59
2021/01/04 02:50:33;;;;;;;127.05;71.10;;;17.70;61.30;;;;;;5115759;28;20024;-59
2021/01/04 02:53:41;;;;;;;120.57;65.75;;;17.70;61.30;;;;;;5115665;28;20028;-59
2021/01/04 02:56:40;;;;;;;118.10;69.07;;;17.70;61.40;;;;;;5115738;28;20027;-59
2021/01/04 02:59:44;;;;;;;116.68;65.40;;;17.60;61.50;;;;;;5115653;28;20027;-63
2021/01/04 03:02:12;;;;;;;108.78;63.60;;;17.60;61.70;;;;;;5073767;28;20114;-59
2021/01/04 03:04:38;;;;;;;106.22;61.40;;;17.60;61.50;;;;;;5115672;28;20058;-59
2021/01/04 03:07:07;;;;;;;105.88;60.83;;;17.60;61.70;;;;;;5115346;28;20074;-59
2021/01/04 03:09:33;;;;;;;116.85;61.67;;;17.60;61.70;;;;;;5115238;28;20040;-59
2021/01/04 03:12:14;;;;;;;108.65;61.50;;;17.50;61.70;;;;;;5115297;28;20465;-59
2021/01/04 03:15:06;;;;;;;103.55;60.35;;;17.50;61.80;;;;;;5115828;28;20076;-59
2021/01/04 03:17:43;;;;;;;107.72;58.40;;;17.60;61.70;;;;;;5115428;28;20359;-59
2021/01/04 03:20:14;;;;;;;104.38;59.00;;;17.50;61.50;;;;;;5115044;28;20028;-59
2021/01/04 03:22:42;;;;;;;104.18;58.38;;;17.50;61.70;;;;;;5115340;28;20384;-59
2021/01/04 03:25:45;;;;;;;98.85;56.63;;;17.40;61.80;;;;;;5114851;28;20045;-58
2021/01/04 03:28:23;;;;;;;96.82;54.35;;;17.30;61.90;;;;;;5114922;28;20070;-59
2021/01/04 03:30:49;;;;;;;105.50;57.75;;;17.30;62.00;;;;;;5115328;28;20038;-59
2021/01/04 03:33:15;;;;;;;98.80;55.90;;;17.30;62.00;;;;;;5114912;28;20050;-59
2021/01/04 03:35:41;;;;;;;99.03;54.60;;;17.30;62.10;;;;;;5115288;28;20381;-59
2021/01/04 03:38:07;;;;;;;95.85;53.83;;;17.20;62.20;;;;;;5114764;28;20019;-59
2021/01/04 03:40:32;;;;;;;100.53;55.47;;;17.20;62.30;;;;;;5114479;28;20034;-59
2021/01/04 03:42:58;;;;;;;95.78;53.25;;;17.10;62.20;;;;;;5114615;28;20019;-59
2021/01/04 03:45:23;;;;;;;89.78;53.28;;;17.10;62.40;;;;;;5114618;28;20039;-59
2021/01/04 03:47:49;;;;;;;86.70;50.15;;;17.10;62.60;;;;;;5114730;28;20015;-59
2021/01/04 03:50:16;;;;;;;87.68;50.00;;;17.10;62.50;;;;;;5114416;28;20081;-59
2021/01/04 03:52:43;;;;;;;89.43;50.50;;;17.10;62.70;;;;;;5114314;28;20553;-59
2021/01/04 03:55:09;;;;;;;87.35;48.28;;;17.00;62.70;;;;;;5114630;28;20070;-59
2021/01/04 03:57:34;;;;;;;94.28;52.80;;;17.00;62.70;;;;;;5114351;28;20028;-59
2021/01/04 04:00:00;;;;;;;86.28;48.30;;;17.00;62.80;;;;;;5114097;28;20024;-59
2021/01/04 04:02:26;;;;;;;84.20;48.03;;;16.90;62.70;;;;;;5114668;28;20031;-59
2021/01/04 04:04:51;;;;;;;82.78;46.65;;;17.10;62.60;;;;;;5114305;28;20454;-59
2021/01/04 04:07:17;;;;;;;78.80;45.85;;;17.20;62.30;;;;;;5114285;28;20040;-59
2021/01/04 04:09:46;;;;;;;81.82;44.03;;;17.20;62.00;;;;;;5114029;28;20043;-59
2021/01/04 04:12:12;;;;;;;83.85;44.67;;;17.30;61.60;;;;;;5114191;28;20054;-59
2021/01/04 04:14:37;;;;;;;72.82;43.90;;;17.50;61.10;;;;;;5114218;28;20082;-59
2021/01/04 04:17:03;;;;;;;75.43;42.08;;;17.50;61.20;;;;;;5114115;28;20384;-59
2021/01/04 04:19:28;;;;;;;73.35;42.58;;;17.60;61.00;;;;;;5114120;28;20059;-59
2021/01/04 04:21:54;;;;;;;71.32;42.42;;;17.60;61.00;;;;;;5113959;28;20032;-59
2021/01/04 04:24:21;;;;;;;71.57;43.33;;;17.60;60.90;;;;;;5113774;28;20026;-59
2021/01/04 04:26:47;;;;;;;66.22;39.28;;;17.70;60.80;;;;;;5113682;28;20085;-59
2021/01/04 04:29:13;;;;;;;69.60;39.45;;;17.70;60.70;;;;;;5114003;28;20051;-59
2021/01/04 04:31:47;;;;;;;71.88;41.53;;;17.70;60.70;;;;;;5114225;28;20103;-59
2021/01/04 04:34:14;;;;;;;68.70;40.40;;;17.70;60.80;;;;;;5114121;28;20024;-59
2021/01/04 04:36:43;;;;;;;67.88;40.25;;;17.70;60.70;;;;;;5114177;28;20034;-59
2021/01/04 04:39:14;;;;;;;70.40;39.47;;;17.70;60.80;;;;;;5113970;28;20123;-59
2021/01/04 04:41:43;;;;;;;65.70;38.28;;;17.60;60.80;;;;;;5113774;28;20027;-59
2021/01/04 04:44:29;;;;;;;64.35;37.08;;;17.60;61.10;;;;;;5113905;28;20027;-59
2021/01/04 04:47:09;;;;;;;61.00;35.75;;;17.60;61.00;;;;;;5113567;28;20047;-59
2021/01/04 04:50:09;;;;;;;67.72;36.60;;;17.60;61.10;;;;;;5113768;28;20468;-59
2021/01/04 04:52:56;;;;;;;63.55;36.20;;;17.60;61.20;;;;;;5114192;28;20058;-59
2021/01/04 04:56:05;;;;;;;61.95;34.90;;;17.60;61.30;;;;;;5113789;28;20020;-59
2021/01/04 04:58:41;;;;;;;62.97;34.00;;;17.50;61.30;;;;;;5117777;28;20469;-59
2021/01/04 05:01:15;;;;;;;59.78;35.10;;;17.50;61.40;;;;;;5117820;28;20458;-59
2021/01/04 05:04:12;;;;;;;57.15;34.03;;;17.40;61.30;;;;;;5118020;28;20031;-59
2021/01/04 05:06:45;;;;;;;55.40;32.70;;;17.50;62.20;;;;;;5118133;28;20043;-59
2021/01/04 05:09:19;;;;;;;60.75;32.72;;;17.80;60.70;;;;;;5117515;28;20469;-59
2021/01/04 05:11:48;;;;;;;63.42;33.65;;;17.90;60.00;;;;;;5117510;28;20088;-59
2021/01/04 05:14:22;;;;;;;54.55;33.53;;;18.00;59.90;;;;;;5117593;28;20055;-59
2021/01/04 05:17:19;;;;;;;57.20;32.15;;;18.10;59.70;;;;;;5117622;28;20035;-59
2021/01/04 05:20:06;;;;;;;54.95;30.65;;;18.10;59.90;;;;;;5117456;28;20492;-59
2021/01/04 05:22:53;;;;;;;51.53;31.30;;;18.00;59.90;;;;;;5117616;28;20024;-59
2021/01/04 05:25:54;;;;;;;54.60;31.13;;;18.00;59.90;;;;;;5117292;28;20015;-59
2021/01/04 05:28:39;;;;;;;49.67;29.08;;;18.00;59.90;;;;;;5117602;28;20057;-59
2021/01/04 05:31:33;;;;;;;49.75;29.05;;;18.10;59.80;;;;;;5117058;28;20023;-59
2021/01/04 05:34:23;;;;;;;47.83;29.05;;;18.10;59.70;;;;;;5117131;28;20046;-59
2021/01/04 05:37:16;;;;;;;50.20;28.80;;;18.20;59.50;;;;;;5117247;28;20031;-59
2021/01/04 05:40:05;;;;;;;46.08;27.88;;;18.30;59.40;;;;;;5117599;28;20050;-59
2021/01/04 05:42:47;;;;;;;44.90;26.05;;;18.30;59.40;;;;;;5117200;28;20023;-59
2021/01/04 05:45:15;;;;;;;49.05;29.42;;;18.30;59.30;;;;;;5117163;28;20115;-59
2021/01/04 05:48:19;;;;;;;49.53;28.05;;;18.40;59.20;;;;;;5117000;28;20023;-59
2021/01/04 05:51:16;;;;;;;49.35;25.42;;;18.50;59.00;;;;;;5049006;28;20031;-59
2021/01/04 05:53:44;;;;;;;45.30;25.65;;;18.50;59.00;;;;;;5117003;27;20043;-59
2021/01/04 05:56:11;;;;;;;42.33;25.73;;;18.50;58.90;;;;;;5116523;28;20110;-59
2021/01/04 05:58:36;;;;;;;46.67;26.80;;;18.60;58.90;;;;;;5117209;28;20030;-59
2021/01/04 06:01:15;;;;;;;43.83;26.10;;;18.70;58.90;;;;;;5117018;28;20023;-59
2021/01/04 06:03:41;;;;;;;42.70;24.98;;;18.70;58.70;;;;;;5116719;28;20052;-59
2021/01/04 06:06:21;;;;;;;44.15;24.92;;;18.80;58.80;;;;;;5116527;28;20437;-59
2021/01/04 06:08:47;;;;;;;41.55;24.98;;;18.70;58.80;;;;;;5115839;28;20057;-59
2021/01/04 06:11:14;;;;;;;40.83;24.73;;;18.80;58.90;;;;;;5116944;28;20465;-59
2021/01/04 06:13:45;;;;;;;42.08;23.98;;;18.80;58.70;;;;;;5116196;28;20052;-59
2021/01/04 06:16:25;;;;;;;42.95;22.73;;;18.90;58.70;;;;;;5116255;27;20034;-59
2021/01/04 06:18:55;;;;;;;38.20;24.08;;;18.90;58.70;;;;;;5116530;28;20110;-59
2021/01/04 06:21:45;;;;;;;43.65;23.48;;;18.90;58.50;;;;;;5116145;27;20028;-59
2021/01/04 06:24:28;;;;;;;37.33;22.83;;;18.90;58.40;;;;;;5116474;28;20520;-60
2021/01/04 06:27:06;;;;;;;37.35;21.52;;;18.90;58.50;;;;;;5116339;28;20036;-59
2021/01/04 06:29:36;;;;;;;40.03;20.63;;;18.90;58.50;;;;;;5116426;28;20031;-59
2021/01/04 06:32:05;;;;;;;36.17;21.45;;;18.80;58.50;;;;;;5116457;28;20035;-59
2021/01/04 06:34:35;;;;;;;40.47;21.48;;;18.80;58.60;;;;;;5115937;28;20024;-59
2021/01/04 06:37:12;;;;;;;35.20;20.05;;;18.70;58.60;;;;;;5115912;28;20035;-59
2021/01/04 06:39:39;;;;;;;37.92;21.92;;;18.70;58.70;;;;;;5115990;28;20499;-59
2021/01/04 06:42:19;;;;;;;36.05;19.50;;;18.70;58.80;;;;;;5115990;28;20027;-59
2021/01/04 06:45:01;;;;;;;31.58;19.73;;;18.60;58.90;;;;;;5115880;28;20023;-59
2021/01/04 06:47:43;;;;;;;38.30;20.73;;;18.60;59.00;;;;;;5114478;28;20473;-59
2021/01/04 06:50:18;;;;;;;32.95;18.90;;;18.70;58.90;;;;;;5115495;28;20076;-62
2021/01/04 06:53:04;;;;;;;38.28;19.05;;;18.60;59.10;;;;;;5115646;28;20031;-59
2021/01/04 06:56:02;;;;;;;36.33;20.15;;;18.60;59.60;;;;;;5115837;28;20101;-62
2021/01/04 06:58:36;;;;;;;32.30;19.75;;;18.60;60.00;;;;;;5082172;28;20542;-61
2021/01/04 07:01:14;;;;;;;29.33;18.20;;;18.60;59.70;;;;;;5115544;28;20027;-59
2021/01/04 07:04:03;;;;;;;31.42;17.80;;;18.60;59.70;;;;;;5115380;28;20023;-59
2021/01/04 07:06:53;;;;;;;37.03;17.75;;;18.60;59.60;;;;;;5115593;28;20114;-60
2021/01/04 07:09:52;;;;;;;27.85;16.95;;;18.60;59.70;;;;;;5115263;28;20435;-59
2021/01/04 07:12:41;;;;;;;27.30;16.38;;;18.60;59.50;;;;;;5115503;28;20100;-60
2021/01/04 07:15:09;;;;;;;30.42;17.05;;;18.60;59.40;;;;;;5115225;28;20027;-62
2021/01/04 07:18:03;;;;;;;27.42;16.15;;;18.60;59.50;;;;;;5115343;27;20035;-62
2021/01/04 07:20:40;;;;;;;28.80;16.20;;;18.60;59.60;;;;;;5114964;28;20443;-62
2021/01/04 07:23:08;;;;;;;28.95;16.55;;;18.50;59.60;;;;;;5115288;28;20019;-62
2021/01/04 07:25:39;;;;;;;26.98;15.82;;;18.40;59.70;;;;;;5114736;28;20032;-62
2021/01/04 07:28:26;;;;;;;29.33;16.63;;;18.40;59.70;;;;;;5115547;28;20099;-62
2021/01/04 07:31:04;;;;;;;26.83;15.40;;;18.30;59.80;;;;;;5114962;28;20085;-62
2021/01/04 07:33:57;;;;;;;27.65;15.48;;;18.20;60.00;;;;;;5113816;28;20380;-62
2021/01/04 07:36:38;;;;;;;31.38;14.70;;;18.10;60.10;;;;;;5114921;28;20030;-60
2021/01/04 07:39:18;;;;;;;28.45;14.55;;;18.20;60.00;;;;;;5114934;28;20419;-60
2021/01/04 07:41:58;;;;;;;31.07;15.13;;;18.20;60.20;;;;;;5115083;28;20051;-59
2021/01/04 07:44:32;;;;;;;25.50;14.30;;;18.20;60.40;;;;;;5114754;28;20066;-61
2021/01/04 07:47:23;;;;;;;23.73;13.70;;;18.20;60.40;;;;;;5114678;28;20043;-61
2021/01/04 07:49:55;;;;;;;22.25;12.82;;;18.20;60.10;;;;;;5114671;28;20024;-61
2021/01/04 07:52:58;;;;;;;26.77;13.55;;;18.30;59.80;;;;;;5114636;28;20019;-61
2021/01/04 07:55:57;;;;;;;20.67;12.73;;;18.30;59.60;;;;;;5114585;28;20075;-61
2021/01/04 07:58:49;;;;;;;25.65;13.68;;;18.50;59.50;;;;;;5114650;28;20073;-61
2021/01/04 08:01:52;;;;;;;22.55;13.23;;;18.50;59.20;;;;;;5114733;28;20023;-61
2021/01/04 08:04:29;;;;;;;26.90;12.15;;;18.60;59.10;;;;;;5114440;28;20031;-61
2021/01/04 08:07:30;;;;;;;23.98;12.93;;;18.60;58.90;;;;;;5114387;28;20028;-61
2021/01/04 08:09:58;;;;;;;19.10;11.15;;;18.70;59.00;;;;;;5075600;28;20044;-61
2021/01/04 08:12:43;;;;;;;21.08;11.55;;;18.70;59.10;;;;;;5114084;28;20031;-61
2021/01/04 08:15:32;;;;;;;23.63;12.20;;;18.70;59.10;;;;;;5114306;28;20115;-61
2021/01/04 08:18:05;;;;;;;20.13;12.13;;;18.80;59.10;;;;;;5114259;28;20028;-61
2021/01/04 08:20:32;;;;;;;18.83;11.20;;;18.70;59.10;;;;;;5114269;28;20031;-61
2021/01/04 08:23:21;;;;;;;23.45;13.07;;;18.70;58.80;;;;;;5114142;28;20032;-61
2021/01/04 08:26:05;;;;;;;18.20;10.70;;;18.70;58.80;;;;;;5113869;28;20036;-61
2021/01/04 08:28:47;;;;;;;19.80;11.50;;;18.70;58.90;;;;;;5114189;28;20102;-61
2021/01/04 08:31:18;;;;;;;19.75;11.45;;;18.70;58.80;;;;;;5113328;28;20028;-61
2021/01/04 08:33:54;;;;;;;20.10;11.15;;;18.60;58.90;;;;;;5114229;28;20024;-61
2021/01/04 08:36:30;;;;;;;18.90;9.93;;;18.60;58.90;;;;;;5113923;28;20031;-61
2021/01/04 08:39:08;;;;;;;17.65;10.77;;;18.50;58.90;;;;;;5114027;28;20103;-61
2021/01/04 08:41:34;;;;;;;18.40;9.80;;;18.50;59.00;;;;;;5114231;28;20019;-61
2021/01/04 08:44:19;;;;;;;22.42;10.38;;;18.50;59.10;;;;;;5113979;28;20028;-61
2021/01/04 08:46:46;;;;;;;19.33;10.70;;;18.40;59.20;;;;;;5113804;28;20401;-61
2021/01/04 08:49:20;;;;;;;17.85;10.35;;;18.40;59.10;;;;;;5113519;28;20526;-61
2021/01/04 08:51:47;;;;;;;17.15;9.43;;;18.40;59.00;;;;;;5114265;28;20058;-61
2021/01/04 08:54:13;;;;;;;16.17;8.98;;;18.40;59.00;;;;;;5113812;28;20027;-61
2021/01/04 08:56:40;;;;;;;20.33;10.07;;;18.40;59.00;;;;;;5113735;28;20107;-61
2021/01/04 08:59:10;;;;;;;15.48;9.15;;;18.40;59.00;;;;;;5113750;28;20092;-61
2021/01/04 09:01:41;;;;;;;17.05;10.02;;;18.40;59.60;;;;;;5114069;28;20369;-61
2021/01/04 09:04:10;;;;;;;18.40;8.40;;;18.30;59.00;;;;;;5114101;28;20020;-61
2021/01/04 09:06:42;;;;;;;16.05;9.27;;;18.30;59.10;;;;;;5113579;28;20156;-61
2021/01/04 09:09:14;;;;;;;15.27;8.23;;;18.30;59.20;;;;;;5113618;28;20050;-61
2021/01/04 09:12:04;;;;;;;17.90;9.98;;;18.20;59.30;;;;;;5113770;28;20035;-61
2021/01/04 09:14:44;;;;;;;16.67;9.32;;;18.20;59.30;;;;;;5113946;28;20028;-61
2021/01/04 09:17:35;;;;;;;17.02;8.10;;;18.30;59.10;;;;;;5113587;28;20031;-61
2021/01/04 09:20:26;;;;;;;15.65;8.27;;;18.30;59.10;;;;;;5106568;28;20085;-61
2021/01/04 09:23:11;;;;;;;15.80;9.38;;;18.50;58.90;;;;;;5113869;28;20027;-61
2021/01/04 09:26:01;;;;;;;17.50;8.85;;;18.50;58.90;;;;;;5113676;28;20067;-60
2021/01/04 09:28:38;;;;;;;15.15;8.77;;;18.40;58.90;;;;;;5113339;28;20020;-61
2021/01/04 09:31:05;;;;;;;16.48;8.48;;;18.50;58.90;;;;;;5113395;28;20027;-61
2021/01/04 09:33:31;;;;;;;12.68;6.95;;;18.40;58.80;;;;;;5113606;28;20055;-61
2021/01/04 09:36:06;;;;;;;14.25;7.45;;;18.50;58.80;;;;;;5113554;28;20067;-61
2021/01/04 09:38:32;;;;;;;16.13;9.20;;;18.50;58.60;;;;;;5113422;28;20133;-61
2021/01/04 09:41:02;;;;;;;13.15;7.70;;;18.60;58.50;;;;;;5113554;28;20484;-61
2021/01/04 09:43:34;;;;;;;13.52;7.20;;;18.60;58.50;;;;;;5116183;28;20385;-61
2021/01/04 09:46:20;;;;;;;15.52;7.88;;;18.60;58.50;;;;;;5117218;28;20044;-61
2021/01/04 09:49:03;;;;;;;12.48;6.95;;;18.50;58.50;;;;;;5117088;28;20030;-61
2021/01/04 09:52:01;;;;;;;20.95;7.90;;;18.50;58.40;;;;;;5117116;28;20031;-61
2021/01/04 09:54:32;;;;;;;16.25;7.22;;;18.50;58.40;;;;;;5108402;28;20059;-61
2021/01/04 09:57:01;;;;;;;15.77;7.22;;;18.50;57.50;;;;;;5117100;28;20028;-59
2021/01/04 09:59:28;;;;;;;10.40;5.18;;;18.40;54.90;;;;;;5115589;28;20459;-57
2021/01/04 10:01:56;;;;;;;15.77;5.40;;;18.10;55.00;;;;;;5116747;28;20059;-60
2021/01/04 10:04:30;;;;;;;13.77;4.57;;;18.20;54.80;;;;;;5116475;28;20020;-51
2021/01/04 10:06:58;;;;;;;25.25;14.25;;;18.30;53.80;;;;;;5117033;28;20062;-51
2021/01/04 10:09:29;;;;;;;60.25;30.90;;;18.50;53.60;;;;;;5115739;28;20390;-51
2021/01/04 10:11:59;;;;;;;77.30;37.85;;;18.50;53.00;;;;;;5116292;28;20024;-58
2021/01/04 10:14:25;;;;;;;80.33;42.23;;;18.50;52.00;;;;;;5116362;28;20027;-57
2021/01/04 10:16:54;;;;;;;91.45;44.63;;;18.50;50.40;;;;;;5116953;28;20268;-55
2021/01/04 10:19:25;;;;;;;101.43;50.45;;;18.40;49.40;;;;;;5116589;28;20045;-58
2021/01/04 10:21:56;;;;;;;90.85;46.65;;;18.40;48.90;;;;;;5116448;28;20381;-57
2021/01/04 10:24:45;;;;;;;74.90;38.53;;;18.30;48.30;;;;;;5116356;28;20034;-58
2021/01/04 10:27:15;;;;;;;52.58;29.77;;;18.30;47.60;;;;;;5085804;27;20366;-59
2021/01/04 10:29:43;;;;;;;44.95;24.45;;;18.40;47.50;;;;;;5116087;28;20473;-60
2021/01/04 10:32:31;;;;;;;45.05;22.13;;;18.40;47.30;;;;;;5116170;28;20067;-59
2021/01/04 10:34:57;;;;;;;34.80;16.98;;;18.50;47.20;;;;;;5116210;28;20024;-57
2021/01/04 10:37:51;;;;;;;27.75;14.43;;;18.50;46.90;;;;;;5116026;28;20097;-57
2021/01/04 10:40:20;;;;;;;18.80;10.85;;;18.50;46.90;;;;;;5116518;28;20047;-56
2021/01/04 10:42:48;;;;;;;15.93;7.68;;;18.40;47.00;;;;;;5116011;27;20027;-52
2021/01/04 10:45:19;;;;;;;15.55;6.82;;;18.20;46.80;;;;;;5115882;28;20031;-53
2021/01/04 10:48:15;;;;;;;14.48;5.15;;;18.20;47.90;;;;;;5116224;28;20043;-51
2021/01/04 10:50:46;;;;;;;11.00;4.82;;;18.40;47.70;;;;;;5111246;28;20112;-55
2021/01/04 10:53:29;;;;;;;7.55;4.35;;;18.40;47.30;;;;;;5115891;28;20046;-55
2021/01/04 10:56:12;;;;;;;5.80;3.25;;;18.50;47.20;;;;;;5115589;28;20099;-54
2021/01/04 10:58:46;;;;;;;5.68;3.03;;;18.60;46.70;;;;;;5115693;28;20496;-59
2021/01/04 11:01:21;;;;;;;8.73;3.67;;;18.70;46.90;;;;;;5115705;28;20035;-57
2021/01/04 11:03:53;;;;;;;8.25;3.08;;;18.80;47.00;;;;;;5115159;28;20434;-58
2021/01/04 11:06:24;;;;;;;9.73;2.92;;;18.80;47.30;;;;;;5115531;28;20035;-57
2021/01/04 11:08:49;;;;;;;;;;;18.90;47.30;;;;;;5115391;27;20032;-58
2021/01/04 11:11:31;;;;;;;5.70;2.80;;;19.10;47.30;;;;;;5117271;28;19914;-57
2021/01/04 11:14:17;;;;;;;9.50;3.33;;;19.10;47.60;;;;;;5115503;28;20102;-50
2021/01/04 11:16:46;;;;;;;7.43;2.53;;;19.00;48.30;;;;;;5115316;28;20118;-53
2021/01/04 11:19:13;;;;;;;12.35;5.70;;;19.10;48.40;;;;;;5115205;28;20027;-50
2021/01/04 11:21:45;;;;;;;79.20;47.60;;;19.30;47.70;;;;;;5115397;28;20043;-50
2021/01/04 11:24:11;;;;;;;63.13;36.13;;;19.30;46.80;;;;;;5115152;28;20054;-50
2021/01/04 11:26:46;;;;;;;92.55;50.10;;;19.30;46.30;;;;;;5114711;28;20020;-50
2021/01/04 11:29:13;;;;;;;88.47;49.03;;;19.20;46.00;;;;;;5114942;28;20058;-53
2021/01/04 11:31:39;;;;;;;89.82;50.58;;;19.10;46.00;;;;;;5115038;28;20027;-51
2021/01/04 11:34:05;;;;;;;81.90;46.13;;;19.10;45.90;;;;;;5114890;28;20449;-50
2021/01/04 11:36:31;;;;;;;58.08;32.47;;;19.00;45.90;;;;;;5114760;28;20027;-58
2021/01/04 11:38:57;;;;;;;47.80;27.35;;;18.80;45.90;;;;;;5114876;28;20061;-56
2021/01/04 11:41:23;;;;;;;47.72;27.13;;;18.80;46.50;;;;;;5114570;28;20028;-56
2021/01/04 11:43:50;;;;;;;44.38;25.13;;;18.70;47.80;;;;;;5115284;28;20031;-56
2021/01/04 11:46:17;;;;;;;41.08;22.67;;;18.60;49.20;;;;;;5114707;28;20032;-57
2021/01/04 11:48:43;;;;;;;44.85;23.30;;;18.60;50.40;;;;;;5115240;28;20169;-56
2021/01/04 11:51:09;;;;;;;37.85;21.45;;;18.60;51.90;;;;;;5114734;28;20028;-56
2021/01/04 11:53:35;;;;;;;36.58;19.75;;;18.50;53.30;;;;;;5114664;28;20027;-54
2021/01/04 11:56:01;;;;;;;35.95;20.95;;;18.50;54.80;;;;;;5114493;28;20031;-56
2021/01/04 11:58:27;;;;;;;35.65;22.23;;;18.60;56.40;;;;;;5114633;28;20108;-54
2021/01/04 12:00:53;;;;;;;34.88;21.98;;;18.70;58.90;;;;;;5114794;28;20031;-53
2021/01/04 12:03:19;;;;;;;31.02;18.17;;;18.80;62.30;;;;;;5114307;28;20118;-52
2021/01/04 12:05:45;;;;;;;32.58;19.27;;;18.80;60.20;;;;;;5113639;28;20027;-50
2021/01/04 12:08:11;;;;;;;30.05;17.40;;;18.80;64.60;;;;;;5114363;28;20027;-55
2021/01/04 12:10:36;;;;;;;33.78;16.27;;;18.80;63.80;;;;;;5114435;28;20044;-57
2021/01/04 12:13:03;;;;;;;33.35;17.75;;;19.00;62.10;;;;;;5114291;28;20077;-58
2021/01/04 12:15:29;;;;;;;29.25;16.90;;;19.20;60.70;;;;;;5114527;28;20354;-55
2021/01/04 12:17:54;;;;;;;28.50;15.93;;;19.20;59.90;;;;;;5114134;28;20019;-55
2021/01/04 12:20:20;;;;;;;28.48;16.23;;;19.20;59.60;;;;;;5114143;28;20035;-55
2021/01/04 12:22:47;;;;;;;33.25;15.63;;;19.30;59.30;;;;;;5114232;28;20057;-56
2021/01/04 12:25:13;;;;;;;28.42;14.68;;;19.20;59.80;;;;;;5113862;28;20537;-51
2021/01/04 12:27:39;;;;;;;28.25;14.52;;;19.00;60.40;;;;;;5114540;28;20070;-55
2021/01/04 12:30:06;;;;;;;23.95;13.88;;;18.90;60.80;;;;;;5114101;28;20481;-57
2021/01/04 12:32:32;;;;;;;29.77;14.57;;;18.80;60.90;;;;;;5114055;28;20330;-58
2021/01/04 12:34:58;;;;;;;25.35;13.48;;;18.70;61.30;;;;;;5114033;28;20027;-57
2021/01/04 12:37:24;;;;;;;22.63;11.80;;;18.60;61.40;;;;;;5114060;28;20151;-54
2021/01/04 12:39:50;;;;;;;25.55;13.52;;;18.60;61.90;;;;;;5114494;28;20039;-58
2021/01/04 12:42:15;;;;;;;120.32;59.95;;;18.50;62.60;;;;;;5113854;28;20023;-56
2021/01/04 12:44:41;;;;;;;200.52;101.85;;;18.50;61.60;;;;;;5113826;28;20058;-57
2021/01/04 12:47:07;;;;;;;268.33;133.38;;;18.40;60.20;;;;;;5113319;28;20465;-56
2021/01/04 12:49:34;;;;;;;369.48;183.48;;;18.30;58.90;;;;;;5113688;28;20069;-57
2021/01/04 12:52:00;;;;;;;352.67;178.07;;;18.20;57.70;;;;;;5113809;28;20035;-55
2021/01/04 12:54:31;;;;;;;324.55;165.43;;;18.10;57.00;;;;;;5113909;28;20086;-51
2021/01/04 12:57:01;;;;;;;329.77;164.18;;;18.10;56.10;;;;;;5114274;28;20423;-57
2021/01/04 12:59:27;;;;;;;321.25;155.88;;;18.10;55.50;;;;;;5113888;28;20028;-58
2021/01/04 13:01:55;;;;;;;282.33;142.52;;;18.10;55.50;;;;;;5113759;28;20036;-58
2021/01/04 13:04:26;;;;;;;248.82;124.10;;;18.30;55.80;;;;;;5111843;28;20106;-59
2021/01/04 13:06:53;;;;;;;226.93;115.32;;;18.30;56.20;;;;;;5112169;28;20032;-58
2021/01/04 13:09:19;;;;;;;214.50;108.50;;;18.30;56.40;;;;;;5112952;28;20131;-58
2021/01/04 13:11:49;;;;;;;208.68;104.75;;;18.40;56.90;;;;;;5113010;28;20111;-59
2021/01/04 13:14:16;;;;;;;197.95;100.60;;;18.40;57.20;;;;;;5112154;28;20473;-58